Nordic Philip — 5BZH2 — position and weather

sailwx.info

Track history (hours):
 
Tides and Currents Weather Stations Pressure Air Temp Water Temp Dewpoint Dewpoint Depression Visibility Wind Speed Wind Dir Waves Ship Positions

Nordic Philip

Last reported at 2016-Aug-28 09:33 UTC. Time now 2016-Aug-29 07:08 UTC.
Position N 57°15' E 019°32'.

Length 151 m; draft 7.2 m.

Type: Ship (hazmat cat A). MMSI: 212018000.

Date/timePositionNaut miles runAvg speedWind from/ knotsBaromVisibWave heightAir tempDewpointWater temp
2016-Aug-28 09:33N 57°15' E 019°32'1612.5
2016-Aug-28 08:16N 56°59' E 019°27'912.5
2016-Aug-28 07:33N 56°51' E 019°25'1212.4
2016-Aug-28 06:33N 56°38' E 019°22'1312.7
2016-Aug-28 05:33N 56°26' E 019°18'1312.6
2016-Aug-28 04:34N 56°13' E 019°15'1312.7
2016-Aug-28 03:33N 56°01' E 019°11'1312.6
2016-Aug-28 02:33N 55°48' E 019°08'1212.5
2016-Aug-28 01:34N 55°36' E 019°05'1212.3
2016-Aug-28 00:33N 55°24' E 019°03'1212.4
2016-Aug-27 23:34N 55°12' E 019°09'1312.5
2016-Aug-27 22:33N 54°60' E 019°15'1212.5
2016-Aug-27 21:33N 54°49' E 019°25'1212.4
2016-Aug-27 20:34N 54°42' E 019°43'9 9.1
2016-Aug-27 19:34N 54°38' E 019°57'7 6.9
2016-Aug-27 18:33N 54°40' E 020°09'6 6.4
2016-Aug-27 17:33N 54°41' E 020°20'5 1.2
2016-Aug-27 13:29N 54°42' E 020°28'0 0.0
2016-Aug-27 12:17N 54°42' E 020°28'0 0.0
2016-Aug-27 11:29N 54°42' E 020°28'0 0.1
2016-Aug-27 06:17N 54°42' E 020°27'10 5.9
2016-Aug-27 04:33N 54°41' E 020°10'7 6.6
2016-Aug-27 03:33N 54°38' E 019°59'7 6.9
2016-Aug-27 02:33N 54°40' E 019°48'1313.0
2016-Aug-27 01:33N 54°47' E 019°28'1 1.0
2016-Aug-27 00:34N 54°46' E 019°29'6 6.1
2016-Aug-26 23:33N 54°49' E 019°20'1414.3
2016-Aug-26 22:33N 54°53' E 018°56'1514.8
2016-Aug-26 21:33N 54°55' E 018°31'1615.5
2016-Aug-26 20:33N 54°54' E 018°04'1616.0
2016-Aug-26 19:33N 54°53' E 017°36'6716.6
2016-Aug-26 15:33N 54°42' E 015°42'1716.7
2016-Aug-26 14:33N 54°40' E 015°14'1816.8
2016-Aug-26 13:30N 54°37' E 014°43'1616.0
2016-Aug-26 12:30N 54°37' E 014°16'1516.0
2016-Aug-26 11:33N 54°43' E 013°51'1616.1
2016-Aug-26 10:34N 54°45' E 013°24'1616.3
2016-Aug-26 09:33N 54°45' E 012°56'1515.2
2016-Aug-26 08:33N 54°40' E 012°31'1514.6
2016-Aug-26 07:33N 54°28' E 012°15'1414.2
2016-Aug-26 06:33N 54°25' E 011°51'3014.8
2016-Aug-26 04:33N 54°35' E 011°04'1211.9
2016-Aug-26 03:33N 54°34' E 010°44'1111.2
2016-Aug-26 02:33N 54°31' E 010°25'1110.7
2016-Aug-26 01:34N 54°23' E 010°12'3 2.8
2016-Aug-26 00:33N 54°22' E 010°08'5 5.2
2016-Aug-25 23:33N 54°21' E 009°59'8 7.6
2016-Aug-25 22:33N 54°21' E 009°46'6 5.8
2016-Aug-25 21:31N 54°17' E 009°38'7 7.5
2016-Aug-25 20:34N 54°11' E 009°31'8 7.9
2016-Aug-25 19:33N 54°06' E 009°20'8 8.2
2016-Aug-25 18:33N 53°59' E 009°16'7 6.9
2016-Aug-25 17:34N 53°54' E 009°09'4 3.8
2016-Aug-25 16:34N 53°52' E 009°03'1414.2
2016-Aug-25 15:33N 53°56' E 008°39'1515.2
2016-Aug-25 14:33N 53°59' E 008°14'1414.0
2016-Aug-25 13:33N 53°53' E 007°53'1313.4
2016-Aug-25 12:33N 53°45' E 008°12'1414.0
2016-Aug-25 11:33N 53°36' E 008°30'1 1.4
2016-Aug-25 10:31N 53°35' E 008°32'0 0.0
2016-Aug-25 09:28N 53°35' E 008°32'0 0.0
2016-Aug-25 08:31N 53°35' E 008°32'0 0.0
2016-Aug-25 07:31N 53°35' E 008°32'0 0.0
2016-Aug-25 06:31N 53°35' E 008°32'0 0.0
2016-Aug-25 04:31N 53°35' E 008°32'0 0.0
2016-Aug-25 03:31N 53°35' E 008°32'0 0.0
2016-Aug-25 02:31N 53°35' E 008°32'0 0.0
2016-Aug-25 01:31N 53°35' E 008°32'0 0.2
2016-Aug-25 00:33N 53°35' E 008°32'1212.4
2016-Aug-24 23:34N 53°43' E 008°16'1514.8
2016-Aug-24 22:33N 53°52' E 007°55'4 3.5
2016-Aug-24 21:28N 53°54' E 007°51'0 0.0
2016-Aug-24 20:22N 53°54' E 007°51'0 0.0
2016-Aug-24 19:10N 53°54' E 007°51'0 0.0
2016-Aug-24 18:28N 53°54' E 007°51'0 0.0
2016-Aug-24 17:28N 53°55' E 007°51'0 0.0
2016-Aug-24 16:28N 53°54' E 007°51'0 0.0
2016-Aug-24 15:10N 53°55' E 007°51'0 0.1
2016-Aug-24 14:33N 53°55' E 007°51'1010.2
2016-Aug-24 13:33N 54°00' E 008°05'1413.4
2016-Aug-24 12:33N 53°59' E 008°28'1212.6
2016-Aug-24 11:33N 53°51' E 008°45'1414.3
2016-Aug-24 10:34N 53°53' E 009°09'1615.9
2016-Aug-24 09:34N 53°42' E 009°29'1413.9
2016-Aug-24 08:34N 53°33' E 009°47'5 4.4
2016-Aug-24 07:31N 53°32' E 009°55'0 0.0
2016-Aug-24 06:31N 53°32' E 009°55'0 0.0
2016-Aug-24 04:31N 53°32' E 009°55'0 0.0
2016-Aug-24 03:31N 53°32' E 009°55'0 0.0
2016-Aug-24 02:31N 53°32' E 009°55'0 0.0
2016-Aug-24 01:31N 53°32' E 009°55'0 0.0
2016-Aug-24 00:28N 53°32' E 009°55'0 0.0
2016-Aug-23 23:31N 53°32' E 009°55'0 0.0
2016-Aug-23 22:31N 53°32' E 009°55'0 0.0
2016-Aug-23 21:31N 53°32' E 009°55'0 0.0
2016-Aug-23 20:33N 53°32' E 009°55'3 2.5
2016-Aug-23 19:32N 53°30' E 009°56'0 0.0
2016-Aug-23 18:32N 53°30' E 009°56'0 0.0
2016-Aug-23 17:32N 53°30' E 009°56'0 0.0
2016-Aug-23 16:32N 53°30' E 009°56'0 0.0
2016-Aug-23 15:32N 53°30' E 009°56'0 0.0
2016-Aug-23 14:29N 53°30' E 009°56'0 0.0
2016-Aug-23 13:32N 53°30' E 009°56'0 0.0
2016-Aug-23 12:32N 53°30' E 009°56'0 0.0
2016-Aug-23 11:32N 53°30' E 009°56'3 2.7
2016-Aug-23 10:33N 53°32' E 009°54'0 0.4
2016-Aug-23 09:32N 53°32' E 009°55'0 0.0
2016-Aug-23 08:32N 53°32' E 009°55'0 0.0
2016-Aug-23 07:32N 53°32' E 009°55'0 0.0
2016-Aug-23 06:32N 53°32' E 009°55'0 0.0
2016-Aug-23 05:32N 53°32' E 009°55'0 0.0
2016-Aug-23 04:34N 53°32' E 009°55'4 3.8
2016-Aug-23 03:33N 53°33' E 009°49'9 8.8
2016-Aug-23 02:34N 53°36' E 009°35'9 8.7
2016-Aug-23 01:34N 53°44' E 009°27'9 8.9
2016-Aug-23 00:33N 53°51' E 009°19'6 6.4
2016-Aug-22 23:34N 53°54' E 009°09'3 3.1
2016-Aug-22 22:34N 53°56' E 009°13'8 8.1
2016-Aug-22 21:33N 54°03' E 009°18'6 5.9
2016-Aug-22 20:32N 54°09' E 009°22'17 5.4
2016-Aug-22 17:26N 54°20' E 009°44'6 6.7
2016-Aug-22 16:34N 54°21' E 009°53'5 5.3
2016-Aug-22 15:33N 54°22' E 010°02'3 3.5
2016-Aug-22 14:34N 54°22' E 010°08'4 3.6
2016-Aug-22 13:34N 54°25' E 010°12'8 2.6
2016-Aug-22 10:33N 54°32' E 010°17'0 0.0
2016-Aug-22 09:30N 54°32' E 010°17'0 0.0
2016-Aug-22 08:33N 54°32' E 010°17'0 0.0
2016-Aug-22 07:15N 54°32' E 010°17'0 0.1
2016-Aug-22 06:33N 54°32' E 010°17'5 4.7
2016-Aug-22 05:33N 54°32' E 010°25'1313.5
2016-Aug-22 04:33N 54°35' E 010°47'1312.7
2016-Aug-22 03:33N 54°36' E 011°09'1212.4
2016-Aug-22 02:33N 54°32' E 011°29'1212.5
2016-Aug-22 01:33N 54°27' E 011°49'1212.4
2016-Aug-22 00:34N 54°27' E 012°10'1212.2
2016-Aug-21 23:34N 54°38' E 012°20'1912.8
2016-Aug-21 22:07N 54°47' E 012°47'712.7
2016-Aug-21 21:33N 54°51' E 012°58'1312.7
2016-Aug-21 20:33N 54°56' E 013°18'1212.6
2016-Aug-21 19:34N 54°60' E 013°39'1312.7
2016-Aug-21 18:34N 55°03' E 014°00'1312.7
2016-Aug-21 17:33N 55°12' E 014°16'1313.0
2016-Aug-21 16:33N 55°22' E 014°30'1312.7
2016-Aug-21 15:34N 55°30' E 014°48'1312.6
2016-Aug-21 14:33N 55°36' E 015°07'1312.6
2016-Aug-21 13:32N 55°43' E 015°27'18413.2
2016-Aug-20 23:32N 58°17' E 018°33'  
Track history (hours):
 
Tides and Currents Weather Stations Pressure Air Temp Water Temp Dewpoint Dewpoint Depression Visibility Wind Speed Wind Dir Waves Ship Positions

Nordic Philip

Last reported at 2016-Aug-28 09:33 UTC. Time now 2016-Aug-29 07:08 UTC.
Position N 57°15' E 019°32'.

Length 151 m; draft 7.2 m.

Type: Ship (hazmat cat A). MMSI: 212018000.

Date/timePositionNaut miles runAvg speedWind from/ knotsBaromVisibWave heightAir tempDewpointWater temp
2016-Aug-28 09:33N 57°15' E 019°32'1612.5
2016-Aug-28 08:16N 56°59' E 019°27'912.5
2016-Aug-28 07:33N 56°51' E 019°25'1212.4
2016-Aug-28 06:33N 56°38' E 019°22'1312.7
2016-Aug-28 05:33N 56°26' E 019°18'1312.6
2016-Aug-28 04:34N 56°13' E 019°15'1312.7
2016-Aug-28 03:33N 56°01' E 019°11'1312.6
2016-Aug-28 02:33N 55°48' E 019°08'1212.5
2016-Aug-28 01:34N 55°36' E 019°05'1212.3
2016-Aug-28 00:33N 55°24' E 019°03'1212.4
2016-Aug-27 23:34N 55°12' E 019°09'1312.5
2016-Aug-27 22:33N 54°60' E 019°15'1212.5
2016-Aug-27 21:33N 54°49' E 019°25'1212.4
2016-Aug-27 20:34N 54°42' E 019°43'9 9.1
2016-Aug-27 19:34N 54°38' E 019°57'7 6.9
2016-Aug-27 18:33N 54°40' E 020°09'6 6.4
2016-Aug-27 17:33N 54°41' E 020°20'5 1.2
2016-Aug-27 13:29N 54°42' E 020°28'0 0.0
2016-Aug-27 12:17N 54°42' E 020°28'0 0.0
2016-Aug-27 11:29N 54°42' E 020°28'0 0.1
2016-Aug-27 06:17N 54°42' E 020°27'10 5.9
2016-Aug-27 04:33N 54°41' E 020°10'7 6.6
2016-Aug-27 03:33N 54°38' E 019°59'7 6.9
2016-Aug-27 02:33N 54°40' E 019°48'1313.0
2016-Aug-27 01:33N 54°47' E 019°28'1 1.0
2016-Aug-27 00:34N 54°46' E 019°29'6 6.1
2016-Aug-26 23:33N 54°49' E 019°20'1414.3
2016-Aug-26 22:33N 54°53' E 018°56'1514.8
2016-Aug-26 21:33N 54°55' E 018°31'1615.5
2016-Aug-26 20:33N 54°54' E 018°04'1616.0
2016-Aug-26 19:33N 54°53' E 017°36'6716.6
2016-Aug-26 15:33N 54°42' E 015°42'1716.7
2016-Aug-26 14:33N 54°40' E 015°14'1816.8
2016-Aug-26 13:30N 54°37' E 014°43'1616.0
2016-Aug-26 12:30N 54°37' E 014°16'1516.0
2016-Aug-26 11:33N 54°43' E 013°51'1616.1
2016-Aug-26 10:34N 54°45' E 013°24'1616.3
2016-Aug-26 09:33N 54°45' E 012°56'1515.2
2016-Aug-26 08:33N 54°40' E 012°31'1514.6
2016-Aug-26 07:33N 54°28' E 012°15'1414.2
2016-Aug-26 06:33N 54°25' E 011°51'3014.8
2016-Aug-26 04:33N 54°35' E 011°04'1211.9
2016-Aug-26 03:33N 54°34' E 010°44'1111.2
2016-Aug-26 02:33N 54°31' E 010°25'1110.7
2016-Aug-26 01:34N 54°23' E 010°12'3 2.8
2016-Aug-26 00:33N 54°22' E 010°08'5 5.2
2016-Aug-25 23:33N 54°21' E 009°59'8 7.6
2016-Aug-25 22:33N 54°21' E 009°46'6 5.8
2016-Aug-25 21:31N 54°17' E 009°38'7 7.5
2016-Aug-25 20:34N 54°11' E 009°31'8 7.9
2016-Aug-25 19:33N 54°06' E 009°20'8 8.2
2016-Aug-25 18:33N 53°59' E 009°16'7 6.9
2016-Aug-25 17:34N 53°54' E 009°09'4 3.8
2016-Aug-25 16:34N 53°52' E 009°03'1414.2
2016-Aug-25 15:33N 53°56' E 008°39'1515.2
2016-Aug-25 14:33N 53°59' E 008°14'1414.0
2016-Aug-25 13:33N 53°53' E 007°53'1313.4
2016-Aug-25 12:33N 53°45' E 008°12'1414.0
2016-Aug-25 11:33N 53°36' E 008°30'1 1.4
2016-Aug-25 10:31N 53°35' E 008°32'0 0.0
2016-Aug-25 09:28N 53°35' E 008°32'0 0.0
2016-Aug-25 08:31N 53°35' E 008°32'0 0.0
2016-Aug-25 07:31N 53°35' E 008°32'0 0.0
2016-Aug-25 06:31N 53°35' E 008°32'0 0.0
2016-Aug-25 04:31N 53°35' E 008°32'0 0.0
2016-Aug-25 03:31N 53°35' E 008°32'0 0.0
2016-Aug-25 02:31N 53°35' E 008°32'0 0.0
2016-Aug-25 01:31N 53°35' E 008°32'0 0.2
2016-Aug-25 00:33N 53°35' E 008°32'1212.4
2016-Aug-24 23:34N 53°43' E 008°16'1514.8
2016-Aug-24 22:33N 53°52' E 007°55'4 3.5
2016-Aug-24 21:28N 53°54' E 007°51'0 0.0
2016-Aug-24 20:22N 53°54' E 007°51'0 0.0
2016-Aug-24 19:10N 53°54' E 007°51'0 0.0
2016-Aug-24 18:28N 53°54' E 007°51'0 0.0
2016-Aug-24 17:28N 53°55' E 007°51'0 0.0
2016-Aug-24 16:28N 53°54' E 007°51'0 0.0
2016-Aug-24 15:10N 53°55' E 007°51'0 0.1
2016-Aug-24 14:33N 53°55' E 007°51'1010.2
2016-Aug-24 13:33N 54°00' E 008°05'1413.4
2016-Aug-24 12:33N 53°59' E 008°28'1212.6
2016-Aug-24 11:33N 53°51' E 008°45'1414.3
2016-Aug-24 10:34N 53°53' E 009°09'1615.9
2016-Aug-24 09:34N 53°42' E 009°29'1413.9
2016-Aug-24 08:34N 53°33' E 009°47'5 4.4
2016-Aug-24 07:31N 53°32' E 009°55'0 0.0
2016-Aug-24 06:31N 53°32' E 009°55'0 0.0
2016-Aug-24 04:31N 53°32' E 009°55'0 0.0
2016-Aug-24 03:31N 53°32' E 009°55'0 0.0
2016-Aug-24 02:31N 53°32' E 009°55'0 0.0
2016-Aug-24 01:31N 53°32' E 009°55'0 0.0
2016-Aug-24 00:28N 53°32' E 009°55'0 0.0
2016-Aug-23 23:31N 53°32' E 009°55'0 0.0
2016-Aug-23 22:31N 53°32' E 009°55'0 0.0
2016-Aug-23 21:31N 53°32' E 009°55'0 0.0
2016-Aug-23 20:33N 53°32' E 009°55'3 2.5
2016-Aug-23 19:32N 53°30' E 009°56'0 0.0
2016-Aug-23 18:32N 53°30' E 009°56'0 0.0
2016-Aug-23 17:32N 53°30' E 009°56'0 0.0
2016-Aug-23 16:32N 53°30' E 009°56'0 0.0
2016-Aug-23 15:32N 53°30' E 009°56'0 0.0
2016-Aug-23 14:29N 53°30' E 009°56'0 0.0
2016-Aug-23 13:32N 53°30' E 009°56'0 0.0
2016-Aug-23 12:32N 53°30' E 009°56'0 0.0
2016-Aug-23 11:32N 53°30' E 009°56'3 2.7
2016-Aug-23 10:33N 53°32' E 009°54'0 0.4
2016-Aug-23 09:32N 53°32' E 009°55'0 0.0
2016-Aug-23 08:32N 53°32' E 009°55'0 0.0
2016-Aug-23 07:32N 53°32' E 009°55'0 0.0
2016-Aug-23 06:32N 53°32' E 009°55'0 0.0
2016-Aug-23 05:32N 53°32' E 009°55'0 0.0
2016-Aug-23 04:34N 53°32' E 009°55'4 3.8
2016-Aug-23 03:33N 53°33' E 009°49'9 8.8
2016-Aug-23 02:34N 53°36' E 009°35'9 8.7
2016-Aug-23 01:34N 53°44' E 009°27'9 8.9
2016-Aug-23 00:33N 53°51' E 009°19'6 6.4
2016-Aug-22 23:34N 53°54' E 009°09'3 3.1
2016-Aug-22 22:34N 53°56' E 009°13'8 8.1
2016-Aug-22 21:33N 54°03' E 009°18'6 5.9
2016-Aug-22 20:32N 54°09' E 009°22'17 5.4
2016-Aug-22 17:26N 54°20' E 009°44'6 6.7
2016-Aug-22 16:34N 54°21' E 009°53'5 5.3
2016-Aug-22 15:33N 54°22' E 010°02'3 3.5
2016-Aug-22 14:34N 54°22' E 010°08'4 3.6
2016-Aug-22 13:34N 54°25' E 010°12'8 2.6
2016-Aug-22 10:33N 54°32' E 010°17'0 0.0
2016-Aug-22 09:30N 54°32' E 010°17'0 0.0
2016-Aug-22 08:33N 54°32' E 010°17'0 0.0
2016-Aug-22 07:15N 54°32' E 010°17'0 0.1
2016-Aug-22 06:33N 54°32' E 010°17'5 4.7
2016-Aug-22 05:33N 54°32' E 010°25'1313.5
2016-Aug-22 04:33N 54°35' E 010°47'1312.7
2016-Aug-22 03:33N 54°36' E 011°09'1212.4
2016-Aug-22 02:33N 54°32' E 011°29'1212.5
2016-Aug-22 01:33N 54°27' E 011°49'1212.4
2016-Aug-22 00:34N 54°27' E 012°10'1212.2
2016-Aug-21 23:34N 54°38' E 012°20'1912.8
2016-Aug-21 22:07N 54°47' E 012°47'712.7
2016-Aug-21 21:33N 54°51' E 012°58'1312.7
2016-Aug-21 20:33N 54°56' E 013°18'1212.6
2016-Aug-21 19:34N 54°60' E 013°39'1312.7
2016-Aug-21 18:34N 55°03' E 014°00'1312.7
2016-Aug-21 17:33N 55°12' E 014°16'1313.0
2016-Aug-21 16:33N 55°22' E 014°30'1312.7
2016-Aug-21 15:34N 55°30' E 014°48'1312.6
2016-Aug-21 14:33N 55°36' E 015°07'1312.6
2016-Aug-21 13:32N 55°43' E 015°27'18413.2
2016-Aug-20 23:32N 58°17' E 018°33'  

Dump ship's entire track history